Time;durP1;ratioP1;P1;durP2;ratioP2;P2;SDS_P1;SDS_P2;PMS_P1;PMS_P2;Temp;Humidity;BMP_temperature;BMP_pressure;BME280_temperature;BME280_humidity;BME280_pressure;Samples;Min_cycle;Max_cycle;Signal;HPM_P1;HPM_P2
2020/12/21 00:00:32;;;;;;;13.73;6.22;;;;;;;4.99;100.00;101804.00;6248452;28;20053;-71
2020/12/21 00:03:33;;;;;;;13.57;4.80;;;;;;;5.17;100.00;101811.56;6248361;28;20048;-71
2020/12/21 00:06:34;;;;;;;15.93;5.30;;;;;;;5.15;100.00;101820.31;6248034;28;20057;-71
2020/12/21 00:09:35;;;;;;;15.75;5.65;;;;;;;5.14;100.00;101821.22;6248055;28;20041;-71
2020/12/21 00:12:36;;;;;;;21.42;5.32;;;;;;;5.12;100.00;101822.94;6247964;28;20052;-71
2020/12/21 00:15:37;;;;;;;15.93;4.95;;;;;;;5.08;100.00;101822.97;6248354;28;20401;-71
2020/12/21 00:18:38;;;;;;;14.85;4.88;;;;;;;5.02;100.00;101819.63;6247446;28;20666;-71
2020/12/21 00:21:41;;;;;;;11.25;5.15;;;;;;;4.98;100.00;101821.38;6249380;28;20110;-71
2020/12/21 00:24:41;;;;;;;17.00;5.18;;;;;;;4.95;100.00;101823.16;6248492;28;20045;-71
2020/12/21 00:27:42;;;;;;;16.17;4.65;;;;;;;4.95;100.00;101830.97;6248572;28;20061;-71
2020/12/21 00:30:43;;;;;;;15.80;5.13;;;;;;;4.96;100.00;101823.16;6247755;28;20053;-71
2020/12/21 00:33:44;;;;;;;13.52;5.18;;;;;;;4.86;100.00;101828.50;6292062;22;20048;-70
2020/12/21 00:36:47;;;;;;;13.77;4.82;;;;;;;4.93;100.00;101820.59;6290901;28;20067;-71
2020/12/21 00:39:49;;;;;;;11.32;4.78;;;;;;;4.90;100.00;101823.22;6288611;28;20091;-71
2020/12/21 00:42:50;;;;;;;12.38;4.70;;;;;;;4.88;100.00;101824.13;6296374;28;20052;-70
2020/12/21 00:45:51;;;;;;;19.77;6.05;;;;;;;4.90;100.00;101817.16;6296158;28;20051;-70
2020/12/21 00:48:52;;;;;;;20.17;5.10;;;;;;;4.89;100.00;101821.50;6296627;28;20056;-70
2020/12/21 00:51:54;;;;;;;10.93;4.45;;;;;;;4.92;100.00;101815.41;6297496;28;20056;-70
2020/12/21 00:54:55;;;;;;;18.48;6.60;;;;;;;4.80;100.00;101819.88;6297221;28;20049;-71
2020/12/21 00:57:56;;;;;;;16.45;5.60;;;;;;;4.86;100.00;101818.06;6296958;28;20097;-70
2020/12/21 01:00:56;;;;;;;13.00;5.18;;;;;;;4.81;100.00;101812.91;6297041;28;20056;-72
2020/12/21 01:03:59;;;;;;;19.10;5.65;;;;;;;4.76;100.00;101802.56;6297086;28;20083;-72
2020/12/21 01:07:00;;;;;;;16.45;5.07;;;;;;;4.75;100.00;101802.59;6296877;28;20045;-71
2020/12/21 01:10:01;;;;;;;19.25;5.75;;;;;;;4.73;100.00;101804.38;6296614;28;20106;-72
2020/12/21 01:13:02;;;;;;;17.20;5.25;;;;;;;4.80;100.00;101812.06;6297082;28;20076;-72
2020/12/21 01:16:03;;;;;;;17.17;5.25;;;;;;;4.78;100.00;101819.03;6296534;28;20072;-70
2020/12/21 01:19:03;;;;;;;15.95;5.05;;;;;;;4.80;100.00;101819.00;6296544;28;20516;-72
2020/12/21 01:22:06;;;;;;;16.60;5.85;;;;;;;4.77;100.00;101817.31;6296465;28;20049;-70
2020/12/21 01:25:07;;;;;;;15.55;5.45;;;;;;;4.81;100.00;101820.72;6297057;28;20459;-66
2020/12/21 01:28:08;;;;;;;12.63;5.25;;;;;;;4.77;100.00;101812.13;6295708;28;20075;-67
2020/12/21 01:31:09;;;;;;;15.95;5.20;;;;;;;4.79;100.00;101815.56;6295741;28;20048;-67
2020/12/21 01:34:12;;;;;;;14.90;5.15;;;;;;;4.70;100.00;101820.00;6296262;28;20067;-67
2020/12/21 01:37:14;;;;;;;20.77;5.57;;;;;;;4.77;100.00;101817.31;6295904;28;20516;-67
2020/12/21 01:40:15;;;;;;;16.67;5.07;;;;;;;4.71;100.00;101816.53;6296336;28;20036;-67
2020/12/21 01:43:18;;;;;;;15.00;4.72;;;;;;;4.63;100.00;101807.94;6296019;28;20052;-67
2020/12/21 01:46:18;;;;;;;12.10;4.88;;;;;;;4.64;100.00;101815.75;6296333;28;20044;-67
2020/12/21 01:49:22;;;;;;;13.35;4.57;;;;;;;4.68;100.00;101816.53;6295859;28;20063;-67
2020/12/21 01:52:25;;;;;;;11.82;4.85;;;;;;;4.77;100.00;101822.53;6295721;28;20527;-68
2020/12/21 01:55:29;;;;;;;17.70;4.78;;;;;;;4.87;100.00;101817.22;6295514;28;20486;-67
2020/12/21 01:58:30;;;;;;;14.95;4.65;;;;;;;4.87;100.00;101810.25;6296108;28;20059;-67
2020/12/21 02:01:33;;;;;;;13.18;3.88;;;;;;;4.96;100.00;101812.75;6295835;28;20061;-68
2020/12/21 02:04:35;;;;;;;16.80;4.40;;;;;;;5.05;100.00;101816.97;6295988;28;20052;-67
2020/12/21 02:07:37;;;;;;;15.48;4.43;;;;;;;5.01;100.00;101807.47;6295778;28;20485;-68
2020/12/21 02:10:38;;;;;;;14.25;4.47;;;;;;;5.03;100.00;101816.13;6295847;28;20048;-67
2020/12/21 02:13:39;;;;;;;13.52;4.40;;;;;;;5.03;100.00;101816.97;6295766;28;20059;-68
2020/12/21 02:16:39;;;;;;;12.02;4.15;;;;;;;5.15;100.00;101820.31;6295598;28;20086;-67
2020/12/21 02:19:40;;;;;;;29.52;4.38;;;;;;;5.20;100.00;101815.91;6295553;28;20554;-68
2020/12/21 02:22:42;;;;;;;19.00;4.93;;;;;;;5.22;100.00;101812.41;6295583;28;20047;-68
2020/12/21 02:25:43;;;;;;;16.00;4.00;;;;;;;5.28;100.00;101819.28;6295959;28;20045;-68
2020/12/21 02:28:44;;;;;;;21.52;4.80;;;;;;;5.27;100.00;101818.41;6295274;28;20045;-68
2020/12/21 02:31:44;;;;;;;14.15;4.20;;;;;;;5.31;100.00;101824.41;6295941;28;20094;-68
2020/12/21 02:34:45;;;;;;;17.13;4.40;;;;;;;5.35;100.00;101823.50;6295519;28;20417;-68
2020/12/21 02:37:47;;;;;;;14.13;4.72;;;;;;;5.46;100.00;101819.00;6295287;28;20102;-68
2020/12/21 02:40:48;;;;;;;17.10;4.50;;;;;;;5.48;100.00;101827.63;6295234;28;20052;-68
2020/12/21 02:43:49;;;;;;;15.77;4.35;;;;;;;5.56;100.00;101810.16;6295227;28;20131;-68
2020/12/21 02:46:50;;;;;;;15.00;3.92;;;;;;;5.50;100.00;101823.28;6295414;28;20056;-68
2020/12/21 02:49:51;;;;;;;20.02;4.57;;;;;;;5.48;100.00;101821.56;6295165;28;20440;-68
2020/12/21 02:52:52;;;;;;;14.88;4.25;;;;;;;5.49;100.00;101826.75;6295383;28;20053;-68
2020/12/21 02:55:53;;;;;;;13.80;3.53;;;;;;;5.50;100.00;101828.50;6295021;28;20048;-67
2020/12/21 02:58:54;;;;;;;14.23;3.67;;;;;;;5.58;100.00;101817.94;6295138;28;20456;-68
2020/12/21 03:01:55;;;;;;;12.88;3.85;;;;;;;5.61;100.00;101820.50;6295308;28;20052;-68
2020/12/21 03:04:56;;;;;;;19.50;3.28;;;;;;;5.58;100.00;101825.75;6295567;28;20056;-68
2020/12/21 03:07:58;;;;;;;10.48;3.20;;;;;;;5.59;100.00;101820.53;6295918;28;20522;-68
2020/12/21 03:10:59;;;;;;;20.92;4.78;;;;;;;5.72;100.00;101826.44;6299579;28;20044;-68
2020/12/21 03:13:59;;;;;;;18.35;4.18;;;;;;;5.71;100.00;101827.28;6299260;28;20051;-68
2020/12/21 03:17:03;;;;;;;23.52;4.03;;;;;;;5.78;99.96;101834.16;6299036;28;20045;-68
2020/12/21 03:20:04;;;;;;;14.57;3.70;;;;;;;5.83;99.24;101826.25;6299400;28;20052;-68
2020/12/21 03:23:06;;;;;;;17.80;3.67;;;;;;;5.83;99.18;101821.88;6299543;28;20048;-68
2020/12/21 03:26:07;;;;;;;18.55;3.78;;;;;;;5.79;99.62;101825.44;6299490;28;20203;-68
2020/12/21 03:29:08;;;;;;;12.65;3.58;;;;;;;5.78;99.24;101815.88;6298684;28;20543;-68
2020/12/21 03:32:08;;;;;;;18.83;3.58;;;;;;;5.91;98.82;101818.31;6299407;28;20049;-67
2020/12/21 03:35:09;;;;;;;7.78;2.72;;;;;;;5.95;98.65;101819.97;6299442;28;20040;-67
2020/12/21 03:38:11;;;;;;;10.70;3.42;;;;;;;5.89;97.54;101820.06;6299002;28;20139;-68
2020/12/21 03:41:12;;;;;;;20.52;3.60;;;;;;;5.90;98.25;101817.41;6299168;28;20052;-68
2020/12/21 03:44:13;;;;;;;11.65;3.72;;;;;;;5.91;98.13;101810.47;6298817;28;20114;-67
2020/12/21 03:47:13;;;;;;;17.55;3.10;;;;;;;5.96;97.42;101811.28;6299055;28;20079;-68
2020/12/21 03:50:14;;;;;;;13.23;3.97;;;;;;;5.93;97.57;101795.69;6298536;28;20131;-67
2020/12/21 03:53:16;;;;;;;14.10;3.08;;;;;;;5.92;97.17;101799.19;6298883;28;20049;-67
2020/12/21 03:56:17;;;;;;;14.95;3.10;;;;;;;5.85;97.47;101804.44;6298026;28;20044;-68
2020/12/21 03:59:18;;;;;;;11.23;3.15;;;;;;;5.80;97.34;101802.81;6298487;28;20066;-68
2020/12/21 04:02:18;;;;;;;16.33;3.00;;;;;;;5.93;97.49;101801.75;6298499;28;20159;-67
2020/12/21 04:05:22;;;;;;;16.33;3.58;;;;;;;5.80;97.06;101801.06;6298457;28;20043;-68
2020/12/21 04:08:24;;;;;;;14.55;2.95;;;;;;;5.75;97.53;101802.03;6298341;28;20048;-67
2020/12/21 04:11:25;;;;;;;21.98;3.58;;;;;;;5.75;97.11;101799.41;6296997;28;20055;-67
2020/12/21 04:14:25;;;;;;;13.18;2.78;;;;;;;5.65;97.16;101801.31;6298453;28;20045;-67
2020/12/21 04:17:26;;;;;;;12.60;2.50;;;;;;;5.68;97.44;101806.50;6298341;28;20048;-67
2020/12/21 04:20:27;;;;;;;16.25;5.20;;;;;;;5.60;97.13;101808.34;6297319;28;20049;-68
2020/12/21 04:23:29;;;;;;;16.60;3.40;;;;;;;5.57;97.39;101806.66;6298378;28;20052;-68
2020/12/21 04:26:30;;;;;;;9.13;2.60;;;;;;;5.52;97.33;101808.47;6298131;28;20118;-68
2020/12/21 04:29:30;;;;;;;19.55;3.15;;;;;;;5.56;97.41;101807.53;6297870;28;20048;-67
2020/12/21 04:32:31;;;;;;;23.95;3.90;;;;;;;5.50;96.89;101812.84;6297760;28;20106;-68
2020/12/21 04:35:32;;;;;;;12.88;3.20;;;;;;;5.40;97.19;101811.25;6298305;28;20064;-67
2020/12/21 04:38:34;;;;;;;18.67;3.33;;;;;;;5.43;96.88;101808.59;6297462;28;20083;-67
2020/12/21 04:41:34;;;;;;;14.60;3.00;;;;;;;5.40;97.30;101818.22;6297138;28;20048;-68
2020/12/21 04:44:36;;;;;;;19.35;3.42;;;;;;;5.38;96.89;101826.06;6297581;28;20044;-67
2020/12/21 04:47:36;;;;;;;10.15;3.20;;;;;;;5.46;96.86;101821.59;6297452;28;20048;-67
2020/12/21 04:50:38;;;;;;;12.57;2.70;;;;;;;5.53;96.94;101817.16;6297266;28;20056;-67
2020/12/21 04:53:40;;;;;;;14.48;3.25;;;;;;;5.46;96.75;101824.22;6297646;28;20048;-67
2020/12/21 04:56:42;;;;;;;16.40;3.40;;;;;;;5.48;96.61;101821.56;6297255;28;20049;-67
2020/12/21 04:59:42;;;;;;;28.35;3.08;;;;;;;5.44;96.28;101819.88;6296907;28;20052;-67
2020/12/21 05:02:43;;;;;;;12.70;2.65;;;;;;;5.42;96.47;101806.88;6297437;28;20154;-68
2020/12/21 05:05:44;;;;;;;13.20;3.08;;;;;;;5.32;97.07;101816.59;6297277;28;20394;-67
2020/12/21 05:08:46;;;;;;;19.95;6.20;;;;;;;5.19;96.28;101816.78;6296380;28;20067;-68
2020/12/21 05:11:53;;;;;;;14.18;3.00;;;;;;;5.11;97.62;101816.88;6297240;28;20049;-67
2020/12/21 05:14:54;;;;;;;23.13;3.20;;;;;;;5.17;96.97;101816.78;6297111;28;20051;-67
2020/12/21 05:18:05;;;;;;;22.23;3.50;;;;;;;5.11;96.78;101821.25;6296912;28;20087;-67
2020/12/21 05:21:10;;;;;;;15.75;3.40;;;;;;;5.10;97.26;101820.38;6296361;28;20134;-67
2020/12/21 05:24:21;;;;;;;19.75;4.10;;;;;;;5.18;96.98;101822.84;6297412;28;20040;-67
2020/12/21 05:27:22;;;;;;;15.90;3.50;;;;;;;5.13;97.03;101816.84;6296515;28;20049;-67
2020/12/21 05:30:23;;;;;;;24.20;4.60;;;;;;;5.13;97.01;101825.53;6295779;28;20098;-67
2020/12/21 05:33:24;;;;;;;15.45;3.53;;;;;;;5.04;96.92;101810.91;6296238;28;20044;-67
2020/12/21 05:36:25;;;;;;;19.45;2.97;;;;;;;5.06;96.95;101801.31;6296073;28;20052;-67
2020/12/21 05:39:26;;;;;;;26.30;3.45;;;;;;;5.04;96.82;101800.50;6296037;28;20513;-68
2020/12/21 05:42:27;;;;;;;17.27;3.25;;;;;;;5.02;97.00;101806.59;6296589;28;20060;-67
2020/12/21 05:45:28;;;;;;;12.10;2.70;;;;;;;4.93;96.96;101807.56;6296390;28;20068;-67
2020/12/21 05:48:34;;;;;;;19.92;3.72;;;;;;;5.11;96.45;101803.84;6296101;28;20048;-67
2020/12/21 05:51:37;;;;;;;16.13;3.42;;;;;;;4.94;96.61;101811.88;6296370;28;20056;-67
2020/12/21 05:54:39;;;;;;;17.10;2.78;;;;;;;4.84;97.16;101805.09;6296270;28;20619;-67
2020/12/21 05:57:40;;;;;;;12.98;2.72;;;;;;;4.77;97.07;101812.13;6296014;28;20056;-67
2020/12/21 06:00:42;;;;;;;21.33;3.50;;;;;;;4.68;97.46;101812.22;6295794;28;20085;-67
2020/12/21 06:03:45;;;;;;;15.85;3.40;;;;;;;4.68;97.61;101814.84;6295870;28;20508;-67
2020/12/21 06:06:52;;;;;;;18.75;3.17;;;;;;;4.59;97.94;101814.94;6295856;28;20236;-67
2020/12/21 06:09:57;;;;;;;14.73;2.67;;;;;;;4.52;97.76;101813.28;6295938;28;20044;-67
2020/12/21 06:12:58;;;;;;;18.85;3.30;;;;;;;4.42;97.91;101819.47;6295829;28;20463;-67
2020/12/21 06:16:00;;;;;;;11.43;3.17;;;;;;;4.36;98.10;101823.00;6295770;28;20044;-67
2020/12/21 06:19:04;;;;;;;10.10;2.67;;;;;;;4.29;98.61;101821.31;6295359;28;20044;-67
2020/12/21 06:22:05;;;;;;;16.17;3.08;;;;;;;4.22;98.58;101817.03;6296117;28;20055;-67
2020/12/21 06:25:07;;;;;;;21.95;2.47;;;;;;;4.22;98.80;101825.72;6295737;28;20044;-67
2020/12/21 06:28:08;;;;;;;16.08;2.80;;;;;;;4.17;99.27;101830.09;6295932;28;20045;-67
2020/12/21 06:31:14;;;;;;;21.23;3.08;;;;;;;4.18;99.23;101830.97;6295202;28;20078;-67
2020/12/21 06:34:17;;;;;;;8.65;2.47;;;;;;;4.20;99.73;101830.09;6303364;22;20103;-70
2020/12/21 06:37:19;;;;;;;10.00;2.58;;;;;;;4.14;99.76;101824.09;6269303;28;20505;-71
2020/12/21 06:40:29;;;;;;;12.55;2.65;;;;;;;4.10;99.76;101825.00;6270399;28;20071;-71
2020/12/21 06:43:30;;;;;;;20.30;2.63;;;;;;;4.04;99.74;101820.69;6274135;28;20056;-71
2020/12/21 06:46:33;;;;;;;10.55;2.92;;;;;;;3.95;99.77;101821.66;6275603;28;20068;-71
2020/12/21 06:49:34;;;;;;;11.95;2.60;;;;;;;3.93;100.00;101815.59;6275060;28;20437;-71
2020/12/21 06:52:35;;;;;;;11.65;2.90;;;;;;;3.90;100.00;101814.75;6275536;28;20044;-71
2020/12/21 06:55:37;;;;;;;7.43;2.47;;;;;;;3.88;100.00;101816.50;6275333;28;20074;-71
2020/12/21 06:58:37;;;;;;;13.55;2.50;;;;;;;3.84;100.00;101812.22;6275050;28;20045;-71
2020/12/21 07:01:40;;;;;;;10.93;2.72;;;;;;;3.84;100.00;101820.88;6274961;28;20142;-71
2020/12/21 07:04:41;;;;;;;24.80;7.90;;;;;;;3.79;100.00;101820.91;6275274;28;20098;-71
2020/12/21 07:07:41;;;;;;;18.83;6.07;;;;;;;3.77;100.00;101830.47;6275018;28;20049;-71
2020/12/21 07:10:43;;;;;;;27.27;10.15;;;;;;;3.75;100.00;101827.00;6274755;28;20583;-71
2020/12/21 07:13:45;;;;;;;12.43;4.53;;;;;;;3.75;100.00;101827.00;6275047;28;20053;-71
2020/12/21 07:16:46;;;;;;;19.63;5.95;;;;;;;3.71;100.00;101827.03;6274656;28;20060;-69
2020/12/21 07:19:47;;;;;;;14.88;3.85;;;;;;;3.67;100.00;101831.38;6274746;28;20049;-69
2020/12/21 07:22:48;;;;;;;10.48;3.47;;;;;;;3.64;100.00;101836.63;6274859;28;20049;-70
2020/12/21 07:25:51;;;;;;;17.02;3.65;;;;;;;3.62;100.00;101835.75;6274877;28;20091;-69
2020/12/21 07:28:53;;;;;;;15.27;3.58;;;;;;;3.53;100.00;101828.88;6273841;28;20049;-69
2020/12/21 07:31:53;;;;;;;12.70;3.95;;;;;;;3.53;100.00;101848.81;6273457;28;20061;-69
2020/12/21 07:34:54;;;;;;;15.00;4.55;;;;;;;3.51;100.00;101847.97;6269877;28;20076;-70
2020/12/21 07:37:55;;;;;;;15.30;4.65;;;;;;;3.51;100.00;101835.00;6273531;28;20053;-69
2020/12/21 07:40:58;;;;;;;14.00;3.13;;;;;;;3.46;100.00;101845.41;6273797;28;20132;-69
2020/12/21 07:44:02;;;;;;;19.77;4.05;;;;;;;3.43;100.00;101844.56;6274088;28;20053;-69
2020/12/21 07:47:07;;;;;;;14.93;4.03;;;;;;;3.40;100.00;101835.03;6274220;28;20056;-69
2020/12/21 07:50:08;;;;;;;13.82;4.38;;;;;;;3.39;100.00;101838.50;6273635;28;20456;-69
2020/12/21 07:53:09;;;;;;;14.32;4.32;;;;;;;3.42;100.00;101845.44;6273759;28;20175;-69
2020/12/21 07:56:15;;;;;;;13.27;4.28;;;;;;;3.40;100.00;101840.22;6273272;28;20076;-70
2020/12/21 07:59:18;;;;;;;16.65;5.00;;;;;;;3.43;100.00;101844.56;6273412;28;20048;-69
2020/12/21 08:02:23;;;;;;;16.95;5.20;;;;;;;3.45;100.00;101841.09;6273955;28;20049;-69
2020/12/21 08:05:24;;;;;;;16.10;5.35;;;;;;;3.53;100.00;101830.63;6273968;28;20053;-69
2020/12/21 08:08:26;;;;;;;17.35;4.70;;;;;;;3.59;100.00;101830.59;6273388;28;20548;-70
2020/12/21 08:11:32;;;;;;;14.73;5.10;;;;;;;3.63;100.00;101832.28;6273622;28;20060;-69
2020/12/21 08:14:33;;;;;;;10.68;4.65;;;;;;;3.65;100.00;101829.69;6273561;28;20539;-69
2020/12/21 08:17:33;;;;;;;18.65;4.47;;;;;;;3.64;100.00;101827.97;6273302;28;20080;-70
2020/12/21 08:20:34;;;;;;;13.63;4.47;;;;;;;3.67;100.00;101825.34;6273273;28;20044;-69
2020/12/21 08:23:35;;;;;;;15.88;4.88;;;;;;;3.58;100.00;101821.06;6273457;28;20106;-69
2020/12/21 08:26:37;;;;;;;16.55;4.95;;;;;;;3.57;100.00;101829.75;6272975;28;20095;-70
2020/12/21 08:29:38;;;;;;;13.93;4.78;;;;;;;3.65;100.00;101827.94;6272632;28;20052;-72
2020/12/21 08:32:39;;;;;;;20.30;5.65;;;;;;;3.56;100.00;101830.63;6273037;28;20603;-68
2020/12/21 08:35:40;;;;;;;21.35;5.38;;;;;;;3.53;100.00;101828.88;6270903;28;20508;-71
2020/12/21 08:38:41;;;;;;;19.98;4.88;;;;;;;3.62;100.00;101824.50;6271258;28;20084;-68
2020/12/21 08:41:45;;;;;;;13.18;4.57;;;;;;;3.57;100.00;101827.13;6272397;28;20041;-69
2020/12/21 08:44:49;;;;;;;15.10;4.10;;;;;;;3.65;100.00;101817.56;6270516;28;20113;-69
2020/12/21 08:47:50;;;;;;;15.93;5.00;;;;;;;3.66;100.00;101826.22;6272411;28;20052;-72
2020/12/21 08:50:51;;;;;;;12.95;4.68;;;;;;;3.68;100.00;101829.66;6272172;28;20059;-69
2020/12/21 08:53:52;;;;;;;16.05;5.80;;;;;;;3.69;100.00;101831.41;6272574;28;20075;-69
2020/12/21 08:56:57;;;;;;;13.95;4.25;;;;;;;3.77;100.00;101826.97;6272190;28;20041;-69
2020/12/21 08:59:57;;;;;;;20.77;5.18;;;;;;;3.88;100.00;101838.16;6271812;28;20049;-69
2020/12/21 09:02:58;;;;;;;17.52;4.82;;;;;;;3.88;100.00;101835.56;6272082;28;20111;-69
2020/12/21 09:05:59;;;;;;;21.90;4.72;;;;;;;3.92;100.00;101828.63;6271093;28;20068;-69
2020/12/21 09:09:01;;;;;;;23.17;6.03;;;;;;;3.99;100.00;101827.66;6271311;28;20642;-70
2020/12/21 09:12:02;;;;;;;19.98;5.43;;;;;;;4.10;99.98;101827.59;6270598;28;20045;-70
2020/12/21 09:15:04;;;;;;;28.70;5.15;;;;;;;4.14;99.54;101824.94;6270371;28;20063;-70
2020/12/21 09:18:04;;;;;;;21.08;6.65;;;;;;;4.21;99.28;101820.53;6271242;28;20045;-70
2020/12/21 09:21:05;;;;;;;15.63;5.70;;;;;;;4.19;99.43;101820.56;6270702;28;20060;-69
2020/12/21 09:24:06;;;;;;;20.00;6.15;;;;;;;4.23;99.70;101826.59;6268329;28;20425;-70
2020/12/21 09:27:08;;;;;;;18.05;5.93;;;;;;;4.25;99.52;101820.50;6269895;28;20087;-70
2020/12/21 09:30:09;;;;;;;14.07;5.55;;;;;;;4.35;99.59;101820.41;6271204;28;20102;-70
2020/12/21 09:33:09;;;;;;;12.88;5.22;;;;;;;4.42;99.53;101820.31;6271294;28;20091;-69
2020/12/21 09:36:11;;;;;;;13.80;5.88;;;;;;;4.41;99.62;101817.75;6271369;28;20060;-69
2020/12/21 09:39:12;;;;;;;18.73;6.00;;;;;;;4.44;99.45;101821.16;6271264;28;20049;-70
2020/12/21 09:42:14;;;;;;;13.45;6.25;;;;;;;4.50;99.18;101812.44;6270795;28;20048;-69
2020/12/21 09:45:15;;;;;;;25.50;6.85;;;;;;;4.58;99.43;101802.78;6269707;28;20045;-70
2020/12/21 09:48:15;;;;;;;22.70;6.07;;;;;;;4.61;98.59;101810.56;6269568;28;20103;-69
2020/12/21 09:51:17;;;;;;;13.35;6.20;;;;;;;4.59;98.67;101807.13;6266668;28;20087;-70
2020/12/21 09:54:18;;;;;;;18.45;5.35;;;;;;;4.73;98.46;101796.56;6271742;28;20498;-69
2020/12/21 09:57:20;;;;;;;14.40;5.70;;;;;;;4.79;97.96;101797.31;6270601;28;20048;-70
2020/12/21 10:00:20;;;;;;;22.40;5.38;;;;;;;4.94;98.06;101783.22;6270931;28;20045;-70
2020/12/21 10:03:21;;;;;;;18.67;5.07;;;;;;;4.96;97.96;101778.03;6271081;28;20106;-69
2020/12/21 10:06:22;;;;;;;10.18;4.93;;;;;;;5.07;97.75;101783.94;6271171;28;20045;-70
2020/12/21 10:09:23;;;;;;;14.38;4.97;;;;;;;5.29;96.13;101774.94;6270613;28;20094;-70
2020/12/21 10:12:24;;;;;;;12.55;4.57;;;;;;;5.38;95.61;101775.69;6269225;28;20056;-70
2020/12/21 10:15:25;;;;;;;12.13;4.80;;;;;;;5.25;95.98;101769.78;6270842;28;20095;-70
2020/12/21 10:18:26;;;;;;;15.60;4.50;;;;;;;5.30;96.08;101763.63;6270055;28;20096;-71
2020/12/21 10:21:27;;;;;;;13.38;4.97;;;;;;;5.33;96.07;101760.13;6270709;28;20132;-72
2020/12/21 10:24:28;;;;;;;18.52;5.22;;;;;;;5.39;95.80;101754.78;6270938;28;20060;-65
2020/12/21 10:27:30;;;;;;;9.75;4.28;;;;;;;5.52;96.61;101752.84;6270706;28;20053;-70
2020/12/21 10:30:31;;;;;;;16.35;4.95;;;;;;;5.47;96.29;101744.25;6268809;28;20075;-73
2020/12/21 10:33:32;;;;;;;15.60;4.85;;;;;;;5.50;96.85;101737.25;6268736;28;20045;-73
2020/12/21 10:36:32;;;;;;;12.32;4.53;;;;;;;5.54;96.62;101738.03;6268145;28;20075;-73
2020/12/21 10:39:34;;;;;;;10.63;4.55;;;;;;;5.59;96.34;101729.28;6269645;28;20052;-75
2020/12/21 10:42:35;;;;;;;13.45;4.60;;;;;;;5.71;96.48;101733.41;6270744;28;20132;-76
2020/12/21 10:45:36;;;;;;;14.77;4.30;;;;;;;5.77;95.67;101722.03;6269972;28;20098;-74
2020/12/21 10:48:37;;;;;;;17.58;4.72;;;;;;;5.89;95.04;101721.78;6268326;28;20045;-76
2020/12/21 10:51:38;;;;;;;14.68;3.95;;;;;;;5.99;95.53;101714.69;6270338;28;20049;-76
2020/12/21 10:54:39;;;;;;;12.85;3.63;;;;;;;6.02;94.88;101709.41;6269852;28;20049;-74
2020/12/21 10:57:40;;;;;;;9.75;3.35;;;;;;;6.04;94.31;101711.13;6269954;28;20453;-75
2020/12/21 11:00:41;;;;;;;10.88;3.13;;;;;;;6.28;92.93;101693.25;6269585;28;20095;-73
2020/12/21 11:03:42;;;;;;;12.63;3.85;;;;;;;6.24;90.90;101688.97;6269819;28;20044;-74
2020/12/21 11:06:43;;;;;;;7.55;2.47;;;;;;;6.45;90.19;101691.16;6269923;28;20118;-67
2020/12/21 11:09:44;;;;;;;13.32;2.55;;;;;;;6.52;90.25;101695.34;6270079;28;20148;-65
2020/12/21 11:12:45;;;;;;;12.65;3.10;;;;;;;6.45;88.94;101688.53;6269004;28;20055;-71
2020/12/21 11:15:46;;;;;;;9.82;2.60;;;;;;;6.46;89.39;101700.69;6265941;28;20049;-74
2020/12/21 11:18:47;;;;;;;11.38;2.63;;;;;;;6.50;87.94;101689.31;6266218;28;20057;-73
2020/12/21 11:21:49;;;;;;;9.65;2.63;;;;;;;6.90;86.02;101679.72;6268887;28;20102;-71
2020/12/21 11:24:50;;;;;;;10.27;2.58;;;;;;;6.90;85.91;101677.09;6269979;28;20048;-71
2020/12/21 11:27:51;;;;;;;11.07;2.30;;;;;;;7.11;85.61;101663.53;6270061;28;20080;-73
2020/12/21 11:30:52;;;;;;;11.18;2.67;;;;;;;7.04;85.04;101657.59;6273331;28;20060;-71
2020/12/21 11:33:53;;;;;;;9.27;2.65;;;;;;;7.05;84.43;101648.00;6274129;28;20056;-70
2020/12/21 11:36:54;;;;;;;10.98;2.83;;;;;;;7.12;84.30;101646.94;6274286;28;20052;-73
2020/12/21 11:39:54;;;;;;;10.98;2.80;;;;;;;6.91;84.64;101643.13;6273626;28;20048;-70
2020/12/21 11:42:56;;;;;;;9.30;2.40;;;;;;;6.94;86.26;101650.84;6273997;28;20045;-70
2020/12/21 11:45:57;;;;;;;10.32;3.25;;;;;;;6.92;85.69;101634.38;6273928;28;20103;-71
2020/12/21 11:48:58;;;;;;;12.57;2.92;;;;;;;6.99;85.38;101633.31;6273862;28;20061;-72
2020/12/21 11:51:59;;;;;;;10.35;2.60;;;;;;;6.96;84.78;101630.78;6273867;28;20049;-71
2020/12/21 11:55:00;;;;;;;7.22;2.55;;;;;;;6.96;86.13;101617.72;6273768;28;20115;-73
2020/12/21 11:58:01;;;;;;;7.15;2.38;;;;;;;6.93;87.17;101628.25;6273742;28;20069;-73
2020/12/21 12:01:02;;;;;;;14.90;3.00;;;;;;;6.94;86.39;101622.13;6273094;28;20464;-72
2020/12/21 12:04:03;;;;;;;8.43;2.60;;;;;;;7.02;87.46;101619.31;6273926;28;20076;-74
2020/12/21 12:07:04;;;;;;;13.88;2.70;;;;;;;7.05;87.30;101612.28;6273400;28;20056;-73
2020/12/21 12:10:06;;;;;;;11.68;2.40;;;;;;;7.07;84.63;101612.22;6272762;28;20049;-71
2020/12/21 12:13:08;;;;;;;6.28;2.25;;;;;;;7.18;86.12;101601.53;6273406;28;20049;-71
2020/12/21 12:16:09;;;;;;;3.92;2.00;;;;;;;7.05;86.74;101593.13;6273308;28;20103;-72
2020/12/21 12:19:10;;;;;;;7.20;2.30;;;;;;;7.01;88.06;101589.72;6272878;28;20053;-72
2020/12/21 12:22:11;;;;;;;7.63;2.20;;;;;;;7.01;88.38;101581.88;6271195;28;20049;-72
2020/12/21 12:25:12;;;;;;;7.78;2.60;;;;;;;6.94;88.18;101576.84;6271891;28;20041;-72
2020/12/21 12:28:14;;;;;;;8.57;2.75;;;;;;;6.98;88.69;101579.34;6272503;28;20048;-72
2020/12/21 12:31:19;;;;;;;6.88;2.45;;;;;;;6.92;89.29;101569.03;6271037;28;20056;-72
2020/12/21 12:34:20;;;;;;;13.88;2.97;;;;;;;6.83;89.32;101558.81;6273003;28;20057;-73
2020/12/21 12:37:20;;;;;;;10.90;2.83;;;;;;;6.86;89.49;101556.16;6268252;28;20087;-71
2020/12/21 12:40:21;;;;;;;12.70;3.58;;;;;;;6.86;89.46;101556.16;6271382;28;20046;-70
2020/12/21 12:43:23;;;;;;;13.45;3.67;;;;;;;6.79;90.37;101558.03;6271799;28;20044;-71
2020/12/21 12:46:24;;;;;;;7.30;2.72;;;;;;;6.81;90.87;101561.50;6270770;28;20099;-70
2020/12/21 12:49:25;;;;;;;10.65;2.95;;;;;;;6.88;89.72;101543.88;6271032;28;20053;-70
2020/12/21 12:52:26;;;;;;;12.75;2.80;;;;;;;6.96;89.34;101539.34;6271895;28;20049;-71
2020/12/21 12:55:26;;;;;;;10.57;3.00;;;;;;;7.02;88.03;101535.69;6272188;28;20073;-71
2020/12/21 12:58:28;;;;;;;14.82;3.13;;;;;;;7.01;89.54;101528.75;6271531;28;20099;-75
2020/12/21 13:01:32;;;;;;;8.82;2.75;;;;;;;7.03;88.31;101530.41;6271200;28;20053;-72
2020/12/21 13:04:33;;;;;;;11.38;3.60;;;;;;;7.00;89.46;101540.13;6270499;28;20049;-73
2020/12/21 13:07:33;;;;;;;10.20;2.72;;;;;;;6.99;88.46;101534.00;6270530;28;20421;-72
2020/12/21 13:10:34;;;;;;;9.63;2.70;;;;;;;7.05;86.77;101535.63;6271262;28;20060;-73
2020/12/21 13:13:37;;;;;;;12.38;2.85;;;;;;;7.15;86.64;101528.41;6271707;28;20486;-72
2020/12/21 13:16:38;;;;;;;9.07;2.30;;;;;;;7.11;86.19;101527.63;6271426;28;20136;-72
2020/12/21 13:19:39;;;;;;;8.48;2.50;;;;;;;7.14;86.25;101530.16;6271146;28;20421;-72
2020/12/21 13:22:40;;;;;;;6.13;2.35;;;;;;;7.10;86.39;101529.38;6271179;28;20131;-72
2020/12/21 13:25:41;;;;;;;6.60;2.15;;;;;;;7.07;87.76;101516.38;6270973;28;20094;-74
2020/12/21 13:28:44;;;;;;;8.88;2.50;;;;;;;7.01;87.86;101515.69;6270945;28;20057;-73
2020/12/21 13:31:45;;;;;;;6.47;1.65;;;;;;;7.21;87.24;101518.63;6270563;28;20049;-72
2020/12/21 13:34:46;;;;;;;9.30;2.35;;;;;;;7.04;87.02;101515.59;6270389;28;20103;-72
2020/12/21 13:37:46;;;;;;;7.20;2.20;;;;;;;7.05;87.03;101501.66;6271217;28;20049;-71
2020/12/21 13:40:47;;;;;;;13.07;2.38;;;;;;;7.01;86.78;101505.25;6270272;28;20095;-73
2020/12/21 13:43:49;;;;;;;5.28;1.95;;;;;;;6.96;87.06;101497.53;6271222;28;20053;-74
2020/12/21 13:46:50;;;;;;;9.05;2.45;;;;;;;7.07;86.06;101492.84;6270612;28;20099;-72
2020/12/21 13:49:51;;;;;;;6.82;2.17;;;;;;;6.99;86.64;101486.97;6270927;28;20045;-72
2020/12/21 13:52:52;;;;;;;8.18;3.05;;;;;;;7.00;87.42;101478.25;6269737;28;20102;-72
2020/12/21 13:55:53;;;;;;;7.57;2.55;;;;;;;6.99;88.03;101479.13;6269323;28;20513;-73
2020/12/21 13:58:55;;;;;;;9.25;2.50;;;;;;;6.98;87.81;101484.41;6270561;28;20061;-71
2020/12/21 14:01:55;;;;;;;6.25;2.33;;;;;;;7.10;87.79;101482.31;6326765;22;20118;-68